Terminal Aerodrome Forecast
Issued by NWS Twin Cities, MN

Home | Current Version | Previous Version | Text Only | Print | Product List | Glossary Off
Versions: 1 2 3 4 5 6 7 8 9 10 11 12

000
FTUS43 KMPX 242330
TAFEAU
TAF
KEAU 242330Z 2500/2524 17010G18KT P6SM SCT060 BKN110
     FM250600 16009KT P6SM BKN060 WS020/18040KT
     FM251200 16009KT P6SM BKN050
     FM251800 16007KT P6SM OVC030
     FM252000 16007KT 3SM -SHRA BR OVC020
     FM252200 15006KT 1 1/2SM -SHRA BR OVC008=

USA.gov is the U.S. government's official web portal to all federal, state and local government web resources and services.